Time;durP1;ratioP1;P1;durP2;ratioP2;P2;SDS_P1;SDS_P2;PMS_P1;PMS_P2;Temp;Humidity;BMP_temperature;BMP_pressure;BME280_temperature;BME280_humidity;BME280_pressure;Samples;Min_cycle;Max_cycle;Signal;HPM_P1;HPM_P2
2023/01/11 00:00:56;;;;;;;;;0.00;0.00;;;;;;;;5102350;27;61954;-82
2023/01/11 00:03:21;;;;;;;;;1.25;0.00;;;;;;;;5104123;27;62072;-83
2023/01/11 00:05:47;;;;;;;;;0.00;0.00;;;;;;;;5103195;27;61789;-82
2023/01/11 00:08:12;;;;;;;;;1.00;0.00;;;;;;;;5103516;27;61975;-83
2023/01/11 00:10:37;;;;;;;;;0.00;0.00;;;;;;;;5103692;27;62012;-82
2023/01/11 00:13:03;;;;;;;;;2.00;0.00;;;;;;;;5103663;27;61928;-81
2023/01/11 00:15:28;;;;;;;;;0.00;0.00;;;;;;;;5102717;27;63229;-82
2023/01/11 00:17:53;;;;;;;;;0.00;0.00;;;;;;;;5102445;27;61964;-83
2023/01/11 00:20:19;;;;;;;;;1.00;0.00;;;;;;;;5101951;27;61930;-82
2023/01/11 00:22:44;;;;;;;;;0.00;0.00;;;;;;;;5101841;27;61865;-82
2023/01/11 00:25:09;;;;;;;;;0.00;0.00;;;;;;;;5101642;27;63639;-83
2023/01/11 00:27:34;;;;;;;;;0.00;0.00;;;;;;;;5097728;27;62055;-82
2023/01/11 00:30:00;;;;;;;;;0.00;0.00;;;;;;;;5103528;27;61946;-82
2023/01/11 00:32:26;;;;;;;;;1.00;0.00;;;;;;;;5103418;27;61981;-82
2023/01/11 00:34:51;;;;;;;;;0.00;0.00;;;;;;;;5102735;27;61833;-82
2023/01/11 00:37:16;;;;;;;;;2.25;0.50;;;;;;;;5101749;27;61823;-82
2023/01/11 00:39:42;;;;;;;;;1.25;0.00;;;;;;;;5103134;27;62182;-82
2023/01/11 00:47:55;;;;;;;;;1.00;0.00;;;;;;;;5102837;27;61756;-82
2023/01/11 00:50:21;;;;;;;;;0.00;0.00;;;;;;;;5103073;27;62653;-82
2023/01/11 00:52:46;;;;;;;;;0.00;0.00;;;;;;;;5101609;27;62084;-83
2023/01/11 00:55:11;;;;;;;;;0.00;0.00;;;;;;;;5102739;27;62712;-82
2023/01/11 00:57:36;;;;;;;;;0.75;0.00;;;;;;;;5101294;27;61751;-81
2023/01/11 01:00:02;;;;;;;;;0.00;0.00;;;;;;;;5101768;27;61800;-82
2023/01/11 01:02:28;;;;;;;;;1.00;0.00;;;;;;;;5103335;27;62114;-82
2023/01/11 01:04:53;;;;;;;;;0.00;0.00;;;;;;;;5100897;27;64856;-83
2023/01/11 01:07:19;;;;;;;;;0.00;0.00;;;;;;;;5103876;27;61849;-82
2023/01/11 01:09:44;;;;;;;;;0.00;0.00;;;;;;;;5104777;27;61919;-82
2023/01/11 01:12:09;;;;;;;;;0.00;0.00;;;;;;;;5106880;27;61835;-83
2023/01/11 01:14:35;;;;;;;;;0.00;0.00;;;;;;;;5104460;27;63350;-82
2023/01/11 01:17:02;;;;;;;;;0.00;0.00;;;;;;;;5105184;27;62224;-82
2023/01/11 01:19:28;;;;;;;;;0.00;0.00;;;;;;;;5104959;27;61657;-83
2023/01/11 01:21:56;;;;;;;;;0.00;0.00;;;;;;;;5106217;27;61895;-83
2023/01/11 01:24:22;;;;;;;;;0.75;0.00;;;;;;;;5105804;27;62658;-83
2023/01/11 01:26:47;;;;;;;;;0.00;0.00;;;;;;;;5102177;27;61912;-82
2023/01/11 01:29:14;;;;;;;;;0.00;0.00;;;;;;;;5106479;27;61757;-82
2023/01/11 01:31:40;;;;;;;;;0.00;0.00;;;;;;;;5106137;27;61665;-82
2023/01/11 01:34:05;;;;;;;;;1.00;0.00;;;;;;;;5105441;27;61670;-82
2023/01/11 01:36:31;;;;;;;;;0.00;0.00;;;;;;;;5104736;27;61716;-83
2023/01/11 01:38:57;;;;;;;;;0.50;0.00;;;;;;;;5106161;27;62196;-82
2023/01/11 01:41:23;;;;;;;;;0.00;0.00;;;;;;;;5106554;27;61761;-82
2023/01/11 01:43:50;;;;;;;;;0.00;0.00;;;;;;;;5105322;27;61793;-82
2023/01/11 01:46:16;;;;;;;;;0.00;0.00;;;;;;;;5105910;27;62055;-83
2023/01/11 01:48:42;;;;;;;;;0.00;0.00;;;;;;;;5105803;27;61894;-81
2023/01/11 01:51:10;;;;;;;;;0.00;0.00;;;;;;;;5104759;27;61732;-82
2023/01/11 01:53:38;;;;;;;;;0.00;0.00;;;;;;;;5103709;27;64891;-82
2023/01/11 01:56:07;;;;;;;;;0.00;0.00;;;;;;;;5104365;27;61844;-82
2023/01/11 01:58:38;;;;;;;;;0.00;0.00;;;;;;;;5104576;27;61970;-82
2023/01/11 02:03:48;;;;;;;;;0.00;0.00;;;;;;;;5104697;27;62333;-82
2023/01/11 02:06:14;;;;;;;;;0.00;0.00;;;;;;;;5105728;27;62120;-82
2023/01/11 02:08:42;;;;;;;;;0.00;0.00;;;;;;;;5105494;27;61964;-82
2023/01/11 02:11:28;;;;;;;;;0.00;0.00;;;;;;;;5104625;27;62419;-82
2023/01/11 02:13:53;;;;;;;;;0.00;0.00;;;;;;;;5104557;27;62916;-82
2023/01/11 02:16:18;;;;;;;;;0.00;0.00;;;;;;;;5105516;27;61745;-83
2023/01/11 02:18:44;;;;;;;;;0.00;0.00;;;;;;;;5104631;27;61823;-82
2023/01/11 02:21:21;;;;;;;;;0.00;0.00;;;;;;;;5105722;27;61687;-82
2023/01/11 02:23:55;;;;;;;;;0.00;0.00;;;;;;;;5104794;27;61982;-82
2023/01/11 02:26:39;;;;;;;;;0.00;0.00;;;;;;;;5103525;27;62052;-83
2023/01/11 02:29:11;;;;;;;;;0.00;0.00;;;;;;;;5103864;27;61988;-82
2023/01/11 02:31:40;;;;;;;;;0.00;0.00;;;;;;;;5105377;27;61753;-82
2023/01/11 02:34:15;;;;;;;;;0.00;0.00;;;;;;;;5104528;27;61763;-82
2023/01/11 02:37:06;;;;;;;;;0.00;0.00;;;;;;;;5086034;27;61805;-82
2023/01/11 02:39:40;;;;;;;;;0.00;0.00;;;;;;;;5081639;28;61939;-82
2023/01/11 02:45:26;;;;;;;;;0.25;0.00;;;;;;;;5083969;28;61904;-82
2023/01/11 02:48:15;;;;;;;;;0.00;0.00;;;;;;;;5082949;28;61756;-82
2023/01/11 02:50:59;;;;;;;;;0.50;0.00;;;;;;;;5074772;28;61780;-82
2023/01/11 02:53:27;;;;;;;;;0.00;0.00;;;;;;;;5083113;28;61983;-82
2023/01/11 02:55:57;;;;;;;;;0.00;0.00;;;;;;;;5083751;28;62684;-82
2023/01/11 02:58:25;;;;;;;;;0.00;0.00;;;;;;;;5084472;27;61843;-82
2023/01/11 03:00:51;;;;;;;;;0.00;0.00;;;;;;;;5084145;28;61707;-82
2023/01/11 03:03:17;;;;;;;;;0.00;0.00;;;;;;;;5084467;28;61733;-83
2023/01/11 03:05:46;;;;;;;;;0.00;0.00;;;;;;;;5083593;28;61851;-82
2023/01/11 03:08:31;;;;;;;;;0.00;0.00;;;;;;;;5082851;28;61718;-83
2023/01/11 03:11:03;;;;;;;;;0.00;0.00;;;;;;;;5081828;28;62075;-83
2023/01/11 03:13:53;;;;;;;;;0.00;0.00;;;;;;;;5082940;28;61898;-82
2023/01/11 03:16:19;;;;;;;;;0.00;0.00;;;;;;;;5081876;28;63611;-82
2023/01/11 03:18:44;;;;;;;;;0.00;0.00;;;;;;;;5082385;28;61794;-81
2023/01/11 03:21:15;;;;;;;;;2.75;0.00;;;;;;;;5084028;27;61726;-82
2023/01/11 03:23:49;;;;;;;;;0.00;0.00;;;;;;;;5084331;28;61719;-82
2023/01/11 03:26:37;;;;;;;;;0.00;0.00;;;;;;;;5090994;27;61824;-83
2023/01/11 03:29:07;;;;;;;;;0.00;0.00;;;;;;;;5101746;27;61733;-83
2023/01/11 03:31:47;;;;;;;;;0.00;0.00;;;;;;;;5102564;27;62279;-82
2023/01/11 03:34:12;;;;;;;;;0.00;0.00;;;;;;;;5102755;27;62053;-82
2023/01/11 03:36:56;;;;;;;;;0.00;0.00;;;;;;;;5103862;27;61901;-82
2023/01/11 03:39:31;;;;;;;;;0.00;0.00;;;;;;;;5104380;27;61881;-82
2023/01/11 03:41:59;;;;;;;;;0.00;0.00;;;;;;;;5102782;27;61702;-83
2023/01/11 03:44:26;;;;;;;;;0.00;0.00;;;;;;;;5104437;27;61911;-83
2023/01/11 03:46:55;;;;;;;;;0.00;0.00;;;;;;;;5101689;27;63887;-82
2023/01/11 03:49:26;;;;;;;;;0.00;0.00;;;;;;;;5104041;27;61897;-82
2023/01/11 03:51:52;;;;;;;;;0.00;0.00;;;;;;;;5102723;27;62166;-82
2023/01/11 03:54:20;;;;;;;;;0.00;0.00;;;;;;;;5104061;27;61898;-83
2023/01/11 03:56:52;;;;;;;;;0.00;0.00;;;;;;;;5103508;27;63020;-83
2023/01/11 03:59:17;;;;;;;;;0.00;0.00;;;;;;;;5102412;27;61856;-82
2023/01/11 04:01:43;;;;;;;;;0.00;0.00;;;;;;;;5102091;27;62133;-83
2023/01/11 04:04:08;;;;;;;;;0.00;0.00;;;;;;;;5104038;27;61725;-83
2023/01/11 04:06:35;;;;;;;;;0.25;0.00;;;;;;;;5101860;27;63948;-83
2023/01/11 04:09:00;;;;;;;;;0.00;0.00;;;;;;;;5102048;27;61867;-82
2023/01/11 04:11:25;;;;;;;;;0.00;0.00;;;;;;;;5102214;27;61719;-83
2023/01/11 04:13:51;;;;;;;;;0.00;0.00;;;;;;;;5103655;27;61918;-82
2023/01/11 04:16:16;;;;;;;;;0.00;0.00;;;;;;;;5101191;27;63725;-83
2023/01/11 04:18:41;;;;;;;;;0.75;0.00;;;;;;;;5103529;27;61729;-82
2023/01/11 04:21:06;;;;;;;;;0.00;0.00;;;;;;;;5102097;27;61699;-83
2023/01/11 04:23:32;;;;;;;;;0.00;0.00;;;;;;;;5102306;27;62092;-83
2023/01/11 04:25:57;;;;;;;;;0.00;0.00;;;;;;;;5102210;27;62024;-82
2023/01/11 04:28:22;;;;;;;;;0.00;0.00;;;;;;;;5101792;27;61789;-82
2023/01/11 04:30:47;;;;;;;;;0.00;0.00;;;;;;;;5103460;27;61855;-82
2023/01/11 04:33:13;;;;;;;;;0.75;0.00;;;;;;;;5102085;27;61817;-83
2023/01/11 04:35:38;;;;;;;;;0.00;0.00;;;;;;;;5102753;27;62153;-83
2023/01/11 04:38:04;;;;;;;;;0.00;0.00;;;;;;;;5101751;27;61857;-82
2023/01/11 04:40:29;;;;;;;;;1.00;0.00;;;;;;;;5103107;27;61743;-85
2023/01/11 04:42:54;;;;;;;;;0.00;0.00;;;;;;;;5103296;27;61943;-89
2023/01/11 04:45:20;;;;;;;;;0.50;0.50;;;;;;;;5102558;27;61941;-87
2023/01/11 04:47:45;;;;;;;;;0.00;0.00;;;;;;;;5101992;27;61803;-88
2023/01/11 04:50:11;;;;;;;;;0.25;0.00;;;;;;;;5102952;27;61679;-87
2023/01/11 04:52:36;;;;;;;;;0.00;0.00;;;;;;;;5103344;27;61792;-88
2023/01/11 04:55:01;;;;;;;;;0.00;0.00;;;;;;;;5102376;27;62804;-87
2023/01/11 04:57:26;;;;;;;;;0.00;0.00;;;;;;;;5102970;27;61855;-87
2023/01/11 04:59:52;;;;;;;;;1.00;0.00;;;;;;;;5101585;27;61880;-87
2023/01/11 05:02:17;;;;;;;;;0.00;0.00;;;;;;;;5103026;27;62120;-87
2023/01/11 05:04:42;;;;;;;;;0.00;0.00;;;;;;;;5101274;27;65074;-87
2023/01/11 05:07:08;;;;;;;;;0.00;0.00;;;;;;;;5102864;27;61785;-87
2023/01/11 05:09:33;;;;;;;;;0.00;0.00;;;;;;;;5101410;27;62148;-87
2023/01/11 05:11:59;;;;;;;;;0.00;0.00;;;;;;;;5103116;27;61628;-87
2023/01/11 05:14:24;;;;;;;;;0.00;0.00;;;;;;;;5102173;27;61783;-87
2023/01/11 05:16:49;;;;;;;;;2.00;0.00;;;;;;;;5101330;27;61877;-87
2023/01/11 05:19:15;;;;;;;;;0.00;0.00;;;;;;;;5101291;27;61792;-87
2023/01/11 05:21:40;;;;;;;;;0.00;0.00;;;;;;;;5101813;27;61654;-87
2023/01/11 05:24:07;;;;;;;;;0.50;0.00;;;;;;;;5100606;27;64370;-87
2023/01/11 05:26:36;;;;;;;;;0.00;0.00;;;;;;;;5100790;27;61949;-87
2023/01/11 05:29:05;;;;;;;;;0.00;0.00;;;;;;;;5102790;27;61816;-88
2023/01/11 05:31:31;;;;;;;;;0.50;0.50;;;;;;;;5101406;27;61711;-87
2023/01/11 05:33:57;;;;;;;;;1.25;1.00;;;;;;;;5100679;27;63723;-87
2023/01/11 05:36:23;;;;;;;;;0.00;0.00;;;;;;;;5101938;27;61881;-87
2023/01/11 05:38:49;;;;;;;;;0.75;0.00;;;;;;;;5102393;27;61833;-87
2023/01/11 05:41:15;;;;;;;;;1.00;1.00;;;;;;;;5100990;27;61868;-87
2023/01/11 05:46:26;;;;;;;;;2.00;0.75;;;;;;;;5102214;27;61970;-87
2023/01/11 05:48:53;;;;;;;;;0.75;0.00;;;;;;;;5100510;27;61850;-87
2023/01/11 05:51:18;;;;;;;;;0.50;0.00;;;;;;;;5102622;27;62074;-88
2023/01/11 05:53:44;;;;;;;;;0.00;0.00;;;;;;;;5102927;27;65026;-88
2023/01/11 05:56:09;;;;;;;;;0.00;0.00;;;;;;;;5104113;27;61772;-88
2023/01/11 05:58:34;;;;;;;;;1.00;1.00;;;;;;;;5104472;27;61726;-88
2023/01/11 06:01:00;;;;;;;;;0.75;0.00;;;;;;;;5105608;27;61859;-88
2023/01/11 06:03:25;;;;;;;;;1.25;0.00;;;;;;;;5105047;27;62634;-88
2023/01/11 06:05:51;;;;;;;;;1.00;1.00;;;;;;;;5104109;27;61738;-88
2023/01/11 06:08:17;;;;;;;;;0.75;0.75;;;;;;;;5104230;27;61783;-88
2023/01/11 06:10:45;;;;;;;;;2.00;2.00;;;;;;;;5105304;27;61837;-87
2023/01/11 06:13:26;;;;;;;;;1.25;0.00;;;;;;;;5104943;27;62791;-88
2023/01/11 06:16:00;;;;;;;;;2.00;0.00;;;;;;;;5105299;27;61924;-88
2023/01/11 06:18:30;;;;;;;;;1.50;0.50;;;;;;;;5105437;27;61811;-88
2023/01/11 06:20:55;;;;;;;;;2.00;1.00;;;;;;;;5103958;27;61791;-88
2023/01/11 06:23:21;;;;;;;;;1.25;0.25;;;;;;;;5102914;27;63960;-88
2023/01/11 06:25:47;;;;;;;;;1.00;0.50;;;;;;;;5104466;27;61920;-88
2023/01/11 06:28:29;;;;;;;;;4.00;1.50;;;;;;;;5105164;27;61754;-88
2023/01/11 06:30:54;;;;;;;;;0.00;0.00;;;;;;;;5103523;27;62210;-88
2023/01/11 06:33:20;;;;;;;;;1.00;0.00;;;;;;;;5104345;27;61970;-83
2023/01/11 06:35:56;;;;;;;;;;;;;;;;;;;;;
2023/01/11 06:38:22;;;;;;;;;4.00;1.75;;;;;;;;5103811;27;72674;-85
2023/01/11 06:40:55;;;;;;;;;0.75;0.25;;;;;;;;5103878;27;61804;-85
2023/01/11 06:43:21;;;;;;;;;6.25;1.00;;;;;;;;5104450;27;61745;-84
2023/01/11 06:45:46;;;;;;;;;4.00;1.75;;;;;;;;5104878;27;61875;-81
2023/01/11 06:48:12;;;;;;;;;1.25;1.25;;;;;;;;5104794;27;61977;-84
2023/01/11 06:50:37;;;;;;;;;3.50;1.00;;;;;;;;5103144;27;62276;-84
2023/01/11 06:53:02;;;;;;;;;1.00;1.00;;;;;;;;5104017;27;62858;-83
2023/01/11 06:55:28;;;;;;;;;2.50;1.75;;;;;;;;5100610;27;61956;-84
2023/01/11 06:57:53;;;;;;;;;6.00;1.00;;;;;;;;5079304;28;61840;-84
2023/01/11 07:00:19;;;;;;;;;0.00;0.00;;;;;;;;5083565;28;62103;-84
2023/01/11 07:02:45;;;;;;;;;0.50;0.50;;;;;;;;5081356;28;63906;-84
2023/01/11 07:05:10;;;;;;;;;2.00;1.00;;;;;;;;5082345;28;61821;-87
2023/01/11 07:07:36;;;;;;;;;2.00;1.00;;;;;;;;5081848;28;62014;-85
2023/01/11 07:10:01;;;;;;;;;1.00;1.00;;;;;;;;5082741;28;61769;-84
2023/01/11 07:12:27;;;;;;;;;0.00;0.00;;;;;;;;5080829;28;63489;-84
2023/01/11 07:14:52;;;;;;;;;2.75;0.50;;;;;;;;5082877;28;62047;-84
2023/01/11 07:17:17;;;;;;;;;2.00;1.00;;;;;;;;5082596;28;62066;-85
2023/01/11 07:19:42;;;;;;;;;1.00;1.00;;;;;;;;5083713;28;61729;-85
2023/01/11 07:22:08;;;;;;;;;6.00;2.00;;;;;;;;5083229;28;63856;-83
2023/01/11 07:24:33;;;;;;;;;1.00;1.00;;;;;;;;5083266;27;62608;-87
2023/01/11 07:27:00;;;;;;;;;1.50;1.00;;;;;;;;5084019;27;62026;-87
2023/01/11 07:29:26;;;;;;;;;2.00;0.50;;;;;;;;5083319;27;61911;-87
2023/01/11 07:31:54;;;;;;;;;0.75;0.00;;;;;;;;5081887;28;64028;-86
2023/01/11 07:34:19;;;;;;;;;0.00;0.00;;;;;;;;5075905;28;61896;-82
2023/01/11 07:36:44;;;;;;;;;0.75;0.00;;;;;;;;5070993;27;61968;-82
2023/01/11 07:39:10;;;;;;;;;2.75;1.00;;;;;;;;5076965;28;61775;-82
2023/01/11 07:44:19;;;;;;;;;0.50;0.00;;;;;;;;5083086;28;61848;-92
2023/01/11 07:46:44;;;;;;;;;3.50;0.75;;;;;;;;5081887;28;61849;-81
2023/01/11 07:49:10;;;;;;;;;3.75;1.00;;;;;;;;5083600;28;61733;-82
2023/01/11 07:51:36;;;;;;;;;2.75;1.00;;;;;;;;5081915;27;62782;-82
2023/01/11 07:54:02;;;;;;;;;2.50;1.50;;;;;;;;5081710;28;61955;-82
2023/01/11 07:56:28;;;;;;;;;2.50;1.00;;;;;;;;5081657;28;61821;-83
2023/01/11 07:58:53;;;;;;;;;2.50;0.00;;;;;;;;5083168;28;61710;-84
2023/01/11 08:01:19;;;;;;;;;4.00;1.00;;;;;;;;5081063;28;64275;-83
2023/01/11 08:03:44;;;;;;;;;2.25;1.00;;;;;;;;5082089;28;61706;-79
2023/01/11 08:06:09;;;;;;;;;0.00;0.00;;;;;;;;5082695;27;61865;-79
2023/01/11 08:08:34;;;;;;;;;4.00;0.75;;;;;;;;5082256;28;61949;-79
2023/01/11 08:16:44;;;;;;;;;5.00;1.00;;;;;;;;5058988;28;61885;-79
2023/01/11 08:19:09;;;;;;;;;1.00;1.00;;;;;;;;5059734;28;61846;-79
2023/01/11 08:21:34;;;;;;;;;4.00;1.00;;;;;;;;5058415;28;62205;-79
2023/01/11 08:24:00;;;;;;;;;1.00;1.00;;;;;;;;5060167;28;61924;-79
2023/01/11 08:26:26;;;;;;;;;3.25;1.00;;;;;;;;5069180;28;61807;-78
2023/01/11 08:28:52;;;;;;;;;1.75;1.75;;;;;;;;5080498;28;62161;-78
2023/01/11 08:31:18;;;;;;;;;3.50;1.00;;;;;;;;5079443;28;61868;-78
2023/01/11 08:33:43;;;;;;;;;2.75;1.00;;;;;;;;5079810;28;61840;-78
2023/01/11 08:36:10;;;;;;;;;2.50;0.75;;;;;;;;5045583;28;62323;-82
2023/01/11 08:38:35;;;;;;;;;4.75;2.75;;;;;;;;5060156;28;61920;-82
2023/01/11 08:41:01;;;;;;;;;2.75;1.75;;;;;;;;5076247;28;64641;-82
2023/01/11 08:43:30;;;;;;;;;3.25;1.00;;;;;;;;5059918;28;61975;-80
2023/01/11 08:45:55;;;;;;;;;2.00;1.00;;;;;;;;5059632;28;62072;-82
2023/01/11 08:48:21;;;;;;;;;4.00;2.00;;;;;;;;5061379;28;61731;-82
2023/01/11 08:50:46;;;;;;;;;3.00;2.00;;;;;;;;5060835;28;62666;-82
2023/01/11 08:53:11;;;;;;;;;4.50;2.00;;;;;;;;5079617;28;61675;-82
2023/01/11 08:55:37;;;;;;;;;1.25;1.25;;;;;;;;5080592;28;62463;-82
2023/01/11 08:58:02;;;;;;;;;5.25;1.50;;;;;;;;5082243;27;62070;-81
2023/01/11 09:00:27;;;;;;;;;3.25;1.00;;;;;;;;5081449;28;61796;-80
2023/01/11 09:02:52;;;;;;;;;0.25;0.25;;;;;;;;5080787;28;61778;-81
2023/01/11 09:05:18;;;;;;;;;3.00;0.50;;;;;;;;5080450;28;61864;-79
2023/01/11 09:07:43;;;;;;;;;4.25;1.25;;;;;;;;5081789;27;62688;-81
2023/01/11 09:10:09;;;;;;;;;2.25;1.50;;;;;;;;5081502;27;61665;-81
2023/01/11 09:12:34;;;;;;;;;1.25;0.00;;;;;;;;5080843;28;61811;-80
2023/01/11 09:14:59;;;;;;;;;1.00;1.00;;;;;;;;5080793;28;62209;-80
2023/01/11 09:17:25;;;;;;;;;2.00;2.00;;;;;;;;5082363;28;61840;-81
2023/01/11 09:19:50;;;;;;;;;9.50;1.25;;;;;;;;5079596;28;63698;-79
2023/01/11 09:22:16;;;;;;;;;3.00;1.25;;;;;;;;5080755;28;61876;-83
2023/01/11 09:24:41;;;;;;;;;2.00;1.00;;;;;;;;5080519;28;61856;-82
2023/01/11 09:27:06;;;;;;;;;1.00;1.00;;;;;;;;5096192;27;62042;-82
2023/01/11 09:29:32;;;;;;;;;0.50;0.50;;;;;;;;5105496;27;62004;-81
2023/01/11 09:31:57;;;;;;;;;0.00;0.00;;;;;;;;5105801;27;61810;-81
2023/01/11 09:34:24;;;;;;;;;4.00;4.00;;;;;;;;5105861;27;61956;-82
2023/01/11 09:36:49;;;;;;;;;5.00;2.00;;;;;;;;5086753;27;61817;-81
2023/01/11 09:39:17;;;;;;;;;2.00;2.00;;;;;;;;5117826;27;63745;-79
2023/01/11 09:42:00;;;;;;;;;2.25;2.00;;;;;;;;5083999;28;62099;-80
2023/01/11 09:44:28;;;;;;;;;3.00;1.25;;;;;;;;5083965;28;61777;-82
2023/01/11 09:46:58;;;;;;;;;2.75;1.00;;;;;;;;5083914;28;61880;-82
2023/01/11 09:49:30;;;;;;;;;3.75;2.25;;;;;;;;5082564;28;63951;-80
2023/01/11 09:52:04;;;;;;;;;0.25;0.25;;;;;;;;5083522;28;61768;-80
2023/01/11 09:54:30;;;;;;;;;3.75;2.75;;;;;;;;5084016;28;61849;-80
2023/01/11 09:57:17;;;;;;;;;1.00;1.00;;;;;;;;5083980;28;62130;-80
2023/01/11 09:59:49;;;;;;;;;3.00;2.00;;;;;;;;5076049;28;62981;-82
2023/01/11 10:02:24;;;;;;;;;3.50;0.00;;;;;;;;5082916;28;62239;-83
2023/01/11 10:05:01;;;;;;;;;2.00;0.50;;;;;;;;5085079;27;61912;-81
2023/01/11 10:07:45;;;;;;;;;1.00;1.00;;;;;;;;5085240;27;62210;-80
2023/01/11 10:10:20;;;;;;;;;1.00;1.00;;;;;;;;5084106;27;61911;-83
2023/01/11 10:12:46;;;;;;;;;6.50;2.50;;;;;;;;5084696;27;61963;-78
2023/01/11 10:15:31;;;;;;;;;1.25;1.00;;;;;;;;5085229;27;62391;-79
2023/01/11 10:17:56;;;;;;;;;3.00;1.75;;;;;;;;5081676;28;62131;-76
2023/01/11 10:20:29;;;;;;;;;0.50;0.25;;;;;;;;5083484;28;62005;-81
2023/01/11 10:23:07;;;;;;;;;1.00;0.75;;;;;;;;5082776;28;62064;-83
2023/01/11 10:25:41;;;;;;;;;0.00;0.00;;;;;;;;5086015;27;61758;-81
2023/01/11 10:28:13;;;;;;;;;0.25;0.25;;;;;;;;5103836;27;62222;-83
2023/01/11 10:31:06;;;;;;;;;1.00;1.00;;;;;;;;5105016;27;61996;-83
2023/01/11 10:36:38;;;;;;;;;1.50;0.75;;;;;;;;5083235;27;61792;-85
2023/01/11 10:39:38;;;;;;;;;6.00;1.25;;;;;;;;5084119;27;62095;-82
2023/01/11 10:42:18;;;;;;;;;3.00;1.50;;;;;;;;5083457;28;62100;-82
2023/01/11 10:44:52;;;;;;;;;0.00;0.00;;;;;;;;5082957;28;62003;-82
2023/01/11 10:47:26;;;;;;;;;2.00;0.00;;;;;;;;5082859;28;61745;-82
2023/01/11 10:50:01;;;;;;;;;0.75;0.25;;;;;;;;5083099;28;61942;-82
2023/01/11 10:52:36;;;;;;;;;2.50;0.00;;;;;;;;5082336;28;63860;-82
2023/01/11 10:55:12;;;;;;;;;1.50;0.50;;;;;;;;5082554;28;61764;-83
2023/01/11 10:57:43;;;;;;;;;0.50;0.50;;;;;;;;5084086;27;61702;-82
2023/01/11 11:00:17;;;;;;;;;0.75;0.75;;;;;;;;5082643;28;62006;-82
2023/01/11 11:03:10;;;;;;;;;5.00;1.50;;;;;;;;5081475;28;63347;-83
2023/01/11 11:06:57;;;;;;;;;7.00;0.00;;;;;;;;5081588;28;62006;-83
2023/01/11 11:12:49;;;;;;;;;;;;;;;;;;;;;
2023/01/11 11:22:15;;;;;;;;;;;;;;;;;;;;;
2023/01/11 11:28:03;;;;;;;;;2.00;0.75;;;;;;;;4997351;28;62820;-80
2023/01/11 11:30:50;;;;;;;;;2.00;1.00;;;;;;;;4999330;28;61783;-83
2023/01/11 11:33:36;;;;;;;;;2.75;0.25;;;;;;;;5000703;28;61875;-78
2023/01/11 11:36:26;;;;;;;;;2.25;1.00;;;;;;;;4998630;28;61883;-81
2023/01/11 11:39:23;;;;;;;;;;;;;;;;;;;;;
2023/01/11 11:42:03;;;;;;;;;0.50;0.50;;;;;;;;4999052;28;73446;-80
2023/01/11 11:51:38;;;;;;;;;1.00;1.00;;;;;;;;4920963;28;62240;-79
2023/01/11 11:54:18;;;;;;;;;3.50;1.00;;;;;;;;4918108;28;62012;-79
2023/01/11 11:57:08;;;;;;;;;1.00;1.00;;;;;;;;4922041;28;62091;-79
2023/01/11 12:00:13;;;;;;;;;;;;;;;;;;;;;
2023/01/11 12:06:08;;;;;;;;;6.00;0.75;;;;;;;;4892972;29;61777;-82
2023/01/11 12:14:57;;;;;;;;;2.00;0.00;;;;;;;;4958351;28;62032;-84
2023/01/11 12:18:08;;;;;;;;;;;;;;;;;;;;;
2023/01/11 12:21:10;;;;;;;;;0.75;0.00;;;;;;;;4913276;28;72825;-82
2023/01/11 12:23:59;;;;;;;;;2.75;1.00;;;;;;;;4880402;28;62014;-81
2023/01/11 12:33:28;;;;;;;;;0.50;0.50;;;;;;;;4897224;29;62210;-80
2023/01/11 12:35:54;;;;;;;;;0.00;0.00;;;;;;;;4900351;28;62329;-81
2023/01/11 12:38:23;;;;;;;;;1.75;0.25;;;;;;;;4900995;28;64259;-79
2023/01/11 12:41:12;;;;;;;;;1.75;0.75;;;;;;;;4896810;28;62235;-80
2023/01/11 13:18:22;;;;;;;;;0.00;0.00;;;;;;;;4873573;29;61933;-83
2023/01/11 13:21:32;;;;;;;;;1.00;0.00;;;;;;;;4861724;29;61966;-83
2023/01/11 13:30:41;;;;;;;;;1.75;1.00;;;;;;;;4913809;28;62057;-85
2023/01/11 13:39:39;;;;;;;;;1.00;0.00;;;;;;;;4933299;22;62058;-81
2023/01/11 13:42:11;;;;;;;;;0.00;0.00;;;;;;;;5078935;27;62006;-82
2023/01/11 13:44:41;;;;;;;;;1.25;0.00;;;;;;;;5062046;28;61958;-83
2023/01/11 13:47:06;;;;;;;;;0.00;0.00;;;;;;;;5078470;28;61644;-83
2023/01/11 13:49:50;;;;;;;;;1.00;1.00;;;;;;;;5061949;28;61953;-80
2023/01/11 13:52:18;;;;;;;;;2.00;0.75;;;;;;;;5081434;28;61912;-80
2023/01/11 13:54:52;;;;;;;;;1.00;1.00;;;;;;;;5062502;28;61924;-82
2023/01/11 13:57:41;;;;;;;;;2.00;1.00;;;;;;;;5080896;28;61927;-80
2023/01/11 14:00:17;;;;;;;;;5.00;0.00;;;;;;;;5061939;28;62901;-82
2023/01/11 14:02:45;;;;;;;;;3.25;1.25;;;;;;;;5051441;28;62243;-82
2023/01/11 14:05:22;;;;;;;;;1.25;0.00;;;;;;;;5070235;28;61953;-81
2023/01/11 14:07:59;;;;;;;;;1.00;1.00;;;;;;;;5058573;28;62022;-81
2023/01/11 14:10:33;;;;;;;;;2.25;0.25;;;;;;;;5077884;28;63159;-82
2023/01/11 14:13:05;;;;;;;;;1.25;0.00;;;;;;;;5061849;28;61991;-82
2023/01/11 14:15:39;;;;;;;;;0.75;0.75;;;;;;;;5055583;28;61903;-81
2023/01/11 14:18:16;;;;;;;;;0.00;0.00;;;;;;;;5045988;28;62114;-82
2023/01/11 14:20:56;;;;;;;;;4.00;1.50;;;;;;;;5070160;28;63519;-82
2023/01/11 14:23:42;;;;;;;;;3.00;1.50;;;;;;;;5065869;28;61795;-80
2023/01/11 14:26:16;;;;;;;;;1.75;0.00;;;;;;;;5084184;28;61790;-81
2023/01/11 14:28:50;;;;;;;;;2.00;0.75;;;;;;;;5080430;28;62315;-82
2023/01/11 14:31:25;;;;;;;;;0.75;0.75;;;;;;;;5080072;28;63721;-80
2023/01/11 14:33:53;;;;;;;;;1.00;1.00;;;;;;;;5063752;28;61860;-81
2023/01/11 14:36:30;;;;;;;;;0.00;0.00;;;;;;;;5083693;28;61711;-81
2023/01/11 14:39:14;;;;;;;;;2.25;0.00;;;;;;;;5082680;28;62155;-81
2023/01/11 14:41:49;;;;;;;;;0.50;0.50;;;;;;;;5063124;28;64655;-81
2023/01/11 14:44:33;;;;;;;;;4.00;1.00;;;;;;;;5059072;28;61955;-81
2023/01/11 14:47:09;;;;;;;;;3.25;1.25;;;;;;;;5084011;28;61727;-81
2023/01/11 14:49:43;;;;;;;;;1.25;1.25;;;;;;;;5065289;28;61837;-82
2023/01/11 14:52:12;;;;;;;;;1.00;1.00;;;;;;;;5064770;28;63974;-81
2023/01/11 14:54:42;;;;;;;;;1.75;0.25;;;;;;;;5081876;28;61886;-82
2023/01/11 14:57:27;;;;;;;;;0.00;0.00;;;;;;;;5065404;28;61961;-81
2023/01/11 14:59:53;;;;;;;;;2.25;0.25;;;;;;;;5083553;28;61999;-81
2023/01/11 15:02:23;;;;;;;;;3.00;2.00;;;;;;;;5083023;28;62694;-81
2023/01/11 15:04:53;;;;;;;;;0.50;0.00;;;;;;;;5083260;28;62015;-81
2023/01/11 15:07:24;;;;;;;;;1.00;1.00;;;;;;;;5065084;28;61851;-80
2023/01/11 15:09:52;;;;;;;;;1.25;1.25;;;;;;;;5065438;28;61816;-81
2023/01/11 15:12:30;;;;;;;;;2.00;1.00;;;;;;;;5061040;28;63440;-81
2023/01/11 15:15:14;;;;;;;;;2.25;1.25;;;;;;;;5079079;28;61866;-81
2023/01/11 15:20:25;;;;;;;;;1.00;0.00;;;;;;;;5062692;28;61930;-81
2023/01/11 15:22:59;;;;;;;;;2.00;1.00;;;;;;;;5062193;28;61890;-81
2023/01/11 15:25:26;;;;;;;;;0.75;0.50;;;;;;;;5062292;28;61739;-80
2023/01/11 15:27:51;;;;;;;;;1.00;1.00;;;;;;;;5063560;28;61770;-81
2023/01/11 15:30:29;;;;;;;;;0.00;0.00;;;;;;;;5045457;28;61614;-81
2023/01/11 15:33:13;;;;;;;;;2.25;0.00;;;;;;;;5044518;28;63691;-81
2023/01/11 15:35:38;;;;;;;;;4.75;1.00;;;;;;;;5044719;28;62002;-81
2023/01/11 15:38:14;;;;;;;;;1.00;1.00;;;;;;;;5063042;28;61977;-81
2023/01/11 15:40:40;;;;;;;;;3.00;0.75;;;;;;;;5063720;28;61819;-82
2023/01/11 15:43:25;;;;;;;;;2.25;0.25;;;;;;;;5077100;28;61802;-81
2023/01/11 15:48:47;;;;;;;;;1.00;1.00;;;;;;;;5083007;28;61803;-82
2023/01/11 15:51:22;;;;;;;;;2.00;2.00;;;;;;;;5065020;28;61827;-83
2023/01/11 15:53:54;;;;;;;;;3.00;1.00;;;;;;;;5081741;28;61944;-82
2023/01/11 15:56:41;;;;;;;;;1.75;1.75;;;;;;;;5063409;28;61961;-82
2023/01/11 15:59:27;;;;;;;;;1.50;1.50;;;;;;;;5062978;28;62282;-83
2023/01/11 16:02:13;;;;;;;;;2.50;1.00;;;;;;;;5079954;28;61767;-82
2023/01/11 16:04:42;;;;;;;;;2.50;1.00;;;;;;;;5080807;28;62068;-78
2023/01/11 16:07:24;;;;;;;;;0.00;0.00;;;;;;;;5057862;28;61776;-78
2023/01/11 16:10:02;;;;;;;;;2.75;1.00;;;;;;;;5081756;28;61907;-78
2023/01/11 16:12:54;;;;;;;;;2.75;2.75;;;;;;;;5083464;28;62040;-78
2023/01/11 16:15:25;;;;;;;;;2.00;1.00;;;;;;;;5064225;28;64988;-78
2023/01/11 16:17:51;;;;;;;;;1.75;0.75;;;;;;;;5064436;28;61940;-78
2023/01/11 16:20:21;;;;;;;;;2.00;1.00;;;;;;;;5082294;28;61966;-78
2023/01/11 16:22:49;;;;;;;;;1.75;1.00;;;;;;;;5083172;28;61911;-78
2023/01/11 16:25:16;;;;;;;;;1.00;1.00;;;;;;;;5063920;28;63714;-78
2023/01/11 16:27:42;;;;;;;;;3.00;1.25;;;;;;;;5064465;28;61849;-78
2023/01/11 16:30:13;;;;;;;;;5.50;3.00;;;;;;;;5064053;28;61771;-78
2023/01/11 16:32:39;;;;;;;;;3.00;2.00;;;;;;;;5082998;28;62001;-78
2023/01/11 16:35:15;;;;;;;;;2.75;1.75;;;;;;;;5077412;28;63173;-78
2023/01/11 16:37:45;;;;;;;;;2.00;1.00;;;;;;;;5043938;28;61848;-78
2023/01/11 16:40:13;;;;;;;;;2.00;1.75;;;;;;;;5062206;28;61772;-78
2023/01/11 16:42:41;;;;;;;;;0.75;0.50;;;;;;;;5044907;28;62111;-78
2023/01/11 16:45:11;;;;;;;;;2.50;1.00;;;;;;;;5064222;28;62680;-78
2023/01/11 16:47:37;;;;;;;;;2.75;0.75;;;;;;;;5082415;28;62042;-78
2023/01/11 16:50:28;;;;;;;;;7.00;2.00;;;;;;;;5063322;28;62302;-78
2023/01/11 16:52:55;;;;;;;;;0.50;0.00;;;;;;;;5063422;28;62151;-78
2023/01/11 16:55:38;;;;;;;;;1.00;1.00;;;;;;;;5063743;28;64019;-78
2023/01/11 16:58:06;;;;;;;;;3.00;1.25;;;;;;;;5082217;28;61842;-78
2023/01/11 17:00:34;;;;;;;;;2.00;1.00;;;;;;;;5063893;28;61768;-78
2023/01/11 17:03:19;;;;;;;;;3.50;2.50;;;;;;;;5063832;28;62201;-78
2023/01/11 17:05:57;;;;;;;;;2.00;2.00;;;;;;;;5081936;28;61778;-78